Time;durP1;ratioP1;P1;durP2;ratioP2;P2;SDS_P1;SDS_P2;PMS_P1;PMS_P2;Temp;Humidity;BMP_temperature;BMP_pressure;BME280_temperature;BME280_humidity;BME280_pressure;Samples;Min_cycle;Max_cycle;Signal;HPM_P1;HPM_P2
2024/02/04 00:01:11;;;;;;;0.90;0.60;;;;;;;18.42;49.12;97196.91;105467;1258;61294;-48
2024/02/04 00:03:38;;;;;;;0.60;0.60;;;;;;;18.42;49.06;97193.04;105477;1257;75024;-47
2024/02/04 00:06:06;;;;;;;0.40;0.40;;;;;;;18.42;49.18;97196.52;105464;1260;65843;-47
2024/02/04 00:08:33;;;;;;;0.50;0.40;;;;;;;18.42;49.14;97198.84;105504;1254;71392;-47
2024/02/04 00:11:00;;;;;;;0.50;0.50;;;;;;;18.42;49.12;97195.20;105427;1259;61167;-47
2024/02/04 00:13:27;;;;;;;0.80;0.70;;;;;;;18.42;49.15;97199.09;105552;1254;61240;-47
2024/02/04 00:15:54;;;;;;;0.50;0.40;;;;;;;18.42;49.19;97201.10;105448;1257;74565;-47
2024/02/04 00:18:20;;;;;;;0.60;0.50;;;;;;;18.42;49.20;97202.41;105605;1259;65923;-47
2024/02/04 00:20:47;;;;;;;1.50;0.50;;;;;;;18.42;49.09;97205.73;105370;1257;72491;-47
2024/02/04 00:23:14;;;;;;;0.80;0.60;;;;;;;18.42;49.09;97210.94;105658;1260;61232;-47
2024/02/04 00:25:41;;;;;;;0.70;0.60;;;;;;;18.42;49.12;97204.52;105417;1257;61257;-46
2024/02/04 00:28:11;;;;;;;0.70;0.50;;;;;;;18.42;49.15;97210.09;105431;1259;74583;-46
2024/02/04 00:30:38;;;;;;;1.00;0.80;;;;;;;18.42;49.20;97210.77;105457;1259;65621;-46
2024/02/04 00:33:06;;;;;;;0.80;0.60;;;;;;;18.42;49.18;97209.08;105480;1259;72374;-46
2024/02/04 00:35:32;;;;;;;0.60;0.50;;;;;;;18.42;49.12;97208.86;105477;1259;61184;-46
2024/02/04 00:37:59;;;;;;;0.40;0.40;;;;;;;18.42;49.17;97208.23;105680;1254;61291;-47
2024/02/04 00:40:26;;;;;;;0.50;0.50;;;;;;;18.42;49.15;97210.30;105572;1254;74480;-47
2024/02/04 00:42:53;;;;;;;0.70;0.60;;;;;;;18.42;49.14;97210.09;105725;1260;65790;-47
2024/02/04 00:45:20;;;;;;;0.40;0.40;;;;;;;18.42;49.18;97209.70;105625;1254;73036;-46
2024/02/04 00:47:46;;;;;;;0.90;0.50;;;;;;;18.42;49.14;97207.52;105490;1260;61663;-47
2024/02/04 00:50:13;;;;;;;0.80;0.50;;;;;;;18.42;49.19;97205.83;105580;1255;61316;-47
2024/02/04 00:52:40;;;;;;;0.70;0.60;;;;;;;18.41;49.12;97206.13;105623;1257;75044;-46
2024/02/04 00:55:07;;;;;;;0.70;0.60;;;;;;;18.42;49.20;97211.16;105475;1259;65615;-47
2024/02/04 00:57:34;;;;;;;0.50;0.40;;;;;;;18.42;49.13;97213.80;105604;1254;72630;-47
2024/02/04 01:00:01;;;;;;;0.40;0.40;;;;;;;18.42;49.14;97214.34;105726;1260;61359;-47
2024/02/04 01:02:28;;;;;;;0.50;0.40;;;;;;;18.42;49.12;97213.73;106073;1259;61125;-46
2024/02/04 01:04:55;;;;;;;0.70;0.60;;;;;;;18.42;49.09;97217.14;105447;1260;74614;-48
2024/02/04 01:07:22;;;;;;;0.40;0.40;;;;;;;18.42;49.14;97212.65;105608;1260;66144;-47
2024/02/04 01:09:48;;;;;;;0.80;0.70;;;;;;;18.42;49.17;97212.10;105450;1257;72527;-46
2024/02/04 01:12:15;;;;;;;0.50;0.50;;;;;;;18.42;49.21;97206.23;106085;1259;61349;-46
2024/02/04 01:14:42;;;;;;;0.60;0.50;;;;;;;18.43;49.21;97197.55;105747;1257;61332;-46
2024/02/04 01:17:09;;;;;;;0.60;0.50;;;;;;;18.43;49.20;97206.39;105659;1260;74665;-46
2024/02/04 01:19:35;;;;;;;0.50;0.50;;;;;;;18.42;49.11;97208.85;105516;1257;66132;-46
2024/02/04 01:22:03;;;;;;;0.60;0.60;;;;;;;18.43;49.17;97206.62;105538;1257;72688;-46
2024/02/04 01:24:31;;;;;;;0.50;0.50;;;;;;;18.42;49.15;97204.13;105666;1260;61222;-46
2024/02/04 01:26:58;;;;;;;0.50;0.50;;;;;;;18.43;49.15;97203.67;105652;1254;61290;-46
2024/02/04 01:29:24;;;;;;;0.60;0.50;;;;;;;18.43;49.22;97202.45;105463;1257;74471;-47
2024/02/04 01:31:51;;;;;;;0.50;0.50;;;;;;;18.44;49.17;97195.02;105626;1259;66178;-46
2024/02/04 01:34:17;;;;;;;1.20;0.60;;;;;;;18.44;49.14;97192.46;105704;1254;72863;-46
2024/02/04 01:36:44;;;;;;;0.80;0.50;;;;;;;18.43;49.11;97188.73;105513;1260;61247;-46
2024/02/04 01:39:11;;;;;;;0.40;0.30;;;;;;;18.43;49.13;97184.79;105657;1260;61249;-47
2024/02/04 01:41:38;;;;;;;1.10;0.50;;;;;;;18.43;49.13;97190.74;105526;1259;74648;-46
2024/02/04 01:44:06;;;;;;;0.60;0.50;;;;;;;18.43;49.19;97191.36;105473;1259;65862;-47
2024/02/04 01:46:32;;;;;;;0.40;0.40;;;;;;;18.43;49.27;97194.38;105634;1255;72403;-47
2024/02/04 01:48:59;;;;;;;0.60;0.50;;;;;;;18.43;49.14;97192.06;105580;1259;61224;-47
2024/02/04 01:51:26;;;;;;;0.90;0.50;;;;;;;18.43;49.13;97184.55;105665;1257;61305;-47
2024/02/04 01:53:52;;;;;;;1.10;0.50;;;;;;;18.44;49.10;97182.25;105594;1259;74610;-47
2024/02/04 01:56:19;;;;;;;0.50;0.50;;;;;;;18.43;49.20;97184.08;105446;1260;66037;-47
2024/02/04 01:58:46;;;;;;;0.60;0.50;;;;;;;18.43;49.20;97177.02;105445;1260;72513;-47
2024/02/04 02:01:13;;;;;;;0.60;0.50;;;;;;;18.43;49.17;97173.46;105513;1259;61318;-46
2024/02/04 02:03:39;;;;;;;0.60;0.50;;;;;;;18.43;49.14;97178.88;105356;1257;61224;-46
2024/02/04 02:06:06;;;;;;;0.50;0.50;;;;;;;18.43;49.12;97181.21;105553;1262;74595;-47
2024/02/04 02:08:33;;;;;;;0.40;0.40;;;;;;;18.43;49.16;97171.99;105386;1263;66356;-47
2024/02/04 02:11:07;;;;;;;0.40;0.40;;;;;;;18.43;49.14;97174.02;105241;1263;72408;-47
2024/02/04 02:13:33;;;;;;;0.40;0.40;;;;;;;18.43;49.22;97171.84;105495;1258;61260;-47
2024/02/04 02:16:11;;;;;;;0.70;0.60;;;;;;;18.43;49.14;97174.02;105591;1259;61429;-46
2024/02/04 02:18:43;;;;;;;0.60;0.60;;;;;;;18.43;49.15;97170.69;105628;1260;74364;-47
2024/02/04 02:21:50;;;;;;;0.60;0.60;;;;;;;18.43;49.21;97168.67;105446;1259;66254;-47
2024/02/04 02:24:23;;;;;;;0.50;0.50;;;;;;;18.43;49.12;97167.05;105339;1257;72653;-48
2024/02/04 02:26:50;;;;;;;0.50;0.50;;;;;;;18.43;49.08;97166.51;105389;1259;63097;-47
2024/02/04 02:29:17;;;;;;;0.80;0.60;;;;;;;18.43;49.18;97163.80;105286;1257;61354;-47
2024/02/04 02:31:44;;;;;;;0.50;0.50;;;;;;;18.44;49.13;97164.59;105263;1258;75231;-48
2024/02/04 02:34:15;;;;;;;0.40;0.40;;;;;;;18.44;49.18;97162.57;105379;1260;65689;-46
2024/02/04 02:37:28;;;;;;;0.60;0.60;;;;;;;18.44;49.14;97162.64;105301;1258;73102;-46
2024/02/04 02:40:21;;;;;;;0.50;0.50;;;;;;;18.44;49.18;97159.70;105259;1262;61250;-48
2024/02/04 02:42:48;;;;;;;0.40;0.40;;;;;;;18.44;49.19;97160.94;105439;1262;61357;-45
2024/02/04 02:45:15;;;;;;;0.90;0.40;;;;;;;18.44;49.17;97161.41;105269;1262;74891;-47
2024/02/04 02:47:42;;;;;;;0.30;0.30;;;;;;;18.44;49.20;97156.84;105621;1260;65087;-48
2024/02/04 02:50:09;;;;;;;0.50;0.40;;;;;;;18.44;49.20;97159.93;105672;1260;72410;-46
2024/02/04 02:52:37;;;;;;;0.50;0.50;;;;;;;18.45;49.15;97156.77;105939;1259;61372;-46
2024/02/04 02:55:04;;;;;;;0.30;0.30;;;;;;;18.44;49.11;97163.11;105521;1257;61763;-47
2024/02/04 02:57:31;;;;;;;0.50;0.50;;;;;;;18.45;49.22;97162.04;105814;1260;74498;-48
2024/02/04 02:59:58;;;;;;;0.60;0.40;;;;;;;18.45;49.22;97165.98;105164;1263;66309;-47
2024/02/04 03:02:25;;;;;;;0.60;0.40;;;;;;;18.44;49.22;97161.87;105409;1257;72618;-45
2024/02/04 03:04:51;;;;;;;0.50;0.50;;;;;;;18.46;49.18;97168.36;105692;1267;61816;-46
2024/02/04 03:07:18;;;;;;;0.60;0.50;;;;;;;18.45;49.11;97167.86;105604;1254;61326;-45
2024/02/04 03:09:45;;;;;;;0.90;0.50;;;;;;;18.45;49.16;97172.59;105645;1257;74595;-46
2024/02/04 03:12:11;;;;;;;0.60;0.50;;;;;;;18.45;49.10;97172.96;105625;1260;65487;-46
2024/02/04 03:14:38;;;;;;;0.50;0.50;;;;;;;18.45;49.25;97173.52;105543;1257;72610;-46
2024/02/04 03:17:05;;;;;;;0.60;0.60;;;;;;;18.45;49.10;97174.75;105546;1267;61351;-46
2024/02/04 03:19:31;;;;;;;0.50;0.50;;;;;;;18.45;49.15;97173.98;105587;1259;61250;-47
2024/02/04 03:21:58;;;;;;;0.70;0.50;;;;;;;18.45;49.14;97178.94;105578;1260;74565;-47
2024/02/04 03:24:24;;;;;;;0.50;0.40;;;;;;;18.45;49.15;97177.47;105637;1260;65901;-47
2024/02/04 03:26:51;;;;;;;0.50;0.50;;;;;;;18.45;49.11;97180.89;105522;1260;72314;-47
2024/02/04 03:29:17;;;;;;;0.40;0.40;;;;;;;18.45;49.06;97182.42;105578;1262;61305;-47
2024/02/04 03:31:44;;;;;;;0.50;0.30;;;;;;;18.46;49.18;97179.34;105658;1260;61323;-46
2024/02/04 03:34:11;;;;;;;0.40;0.40;;;;;;;18.45;49.16;97174.23;105661;1258;75156;-46
2024/02/04 03:36:38;;;;;;;0.50;0.50;;;;;;;18.45;49.13;97177.41;105604;1260;66230;-46
2024/02/04 03:39:05;;;;;;;0.50;0.50;;;;;;;18.46;49.22;97173.05;105656;1267;72509;-45
2024/02/04 03:41:31;;;;;;;0.60;0.40;;;;;;;18.46;49.23;97180.65;105599;1258;61234;-46
2024/02/04 03:43:58;;;;;;;0.30;0.30;;;;;;;18.45;49.15;97181.56;105576;1254;61323;-47
2024/02/04 03:46:25;;;;;;;0.40;0.40;;;;;;;18.45;49.17;97187.23;105631;1267;74466;-46
2024/02/04 03:48:52;;;;;;;0.80;0.40;;;;;;;18.46;49.11;97193.67;105638;1258;66019;-47
2024/02/04 03:51:19;;;;;;;0.60;0.50;;;;;;;18.45;49.14;97191.56;105402;1259;72696;-46
2024/02/04 03:53:47;;;;;;;0.50;0.50;;;;;;;18.45;49.19;97199.48;105482;1255;61930;-46
2024/02/04 03:56:13;;;;;;;0.60;0.60;;;;;;;18.45;49.14;97204.19;105562;1260;61326;-47
2024/02/04 03:58:40;;;;;;;0.50;0.40;;;;;;;18.45;49.20;97202.80;105377;1257;74389;-47
2024/02/04 04:01:11;;;;;;;0.60;0.50;;;;;;;18.46;49.06;97198.49;105274;1261;65868;-47
2024/02/04 04:03:41;;;;;;;0.50;0.40;;;;;;;18.45;49.16;97189.02;105394;1260;72393;-46
2024/02/04 04:06:09;;;;;;;0.40;0.30;;;;;;;18.46;49.16;97191.66;105367;1267;61163;-47
2024/02/04 04:08:37;;;;;;;0.60;0.50;;;;;;;18.45;49.10;97183.20;105509;1255;61332;-47
2024/02/04 04:11:04;;;;;;;0.40;0.40;;;;;;;18.46;49.20;97177.66;105463;1256;74565;-47
2024/02/04 04:13:34;;;;;;;1.10;0.50;;;;;;;18.46;49.14;97188.52;105630;1260;66065;-47
2024/02/04 04:16:02;;;;;;;0.60;0.50;;;;;;;18.46;49.12;97194.61;105552;1261;73740;-47
2024/02/04 04:18:28;;;;;;;0.70;0.60;;;;;;;18.47;49.18;97205.16;105571;1260;61282;-47
2024/02/04 04:20:56;;;;;;;0.30;0.30;;;;;;;18.46;49.11;97192.06;105555;1260;61457;-47
2024/02/04 04:23:22;;;;;;;0.60;0.40;;;;;;;18.47;49.10;97188.59;105600;1260;74466;-47
2024/02/04 04:25:49;;;;;;;0.50;0.40;;;;;;;18.46;49.14;97194.39;105594;1254;61260;-47
2024/02/04 04:28:15;;;;;;;0.50;0.40;;;;;;;18.47;49.16;97195.25;105417;1260;72598;-48
2024/02/04 04:30:42;;;;;;;1.60;0.60;;;;;;;18.46;49.12;97194.24;105570;1260;61259;-48
2024/02/04 04:33:09;;;;;;;1.90;0.40;;;;;;;18.47;49.11;97191.84;105629;1256;61238;-48
2024/02/04 04:35:36;;;;;;;0.60;0.50;;;;;;;18.46;49.06;97191.69;105651;1254;75202;-48
2024/02/04 04:38:02;;;;;;;0.50;0.40;;;;;;;18.47;49.08;97197.66;105629;1259;66060;-46
2024/02/04 04:40:29;;;;;;;0.60;0.50;;;;;;;18.46;49.08;97186.18;105561;1255;72984;-46
2024/02/04 04:42:55;;;;;;;0.70;0.50;;;;;;;18.46;49.06;97194.14;105415;1260;61244;-46
2024/02/04 04:45:22;;;;;;;0.30;0.20;;;;;;;18.46;49.13;97197.96;105490;1258;61700;-46
2024/02/04 04:47:49;;;;;;;0.40;0.40;;;;;;;18.46;49.11;97192.67;105576;1260;74523;-46
2024/02/04 04:50:15;;;;;;;0.70;0.40;;;;;;;18.46;49.11;97184.84;105600;1260;65418;-47
2024/02/04 04:52:42;;;;;;;0.50;0.40;;;;;;;18.46;49.16;97182.94;105582;1254;72575;-46
2024/02/04 04:55:08;;;;;;;0.50;0.50;;;;;;;18.45;49.05;97183.21;105653;1260;61262;-46
2024/02/04 04:57:35;;;;;;;0.50;0.50;;;;;;;18.46;49.12;97179.02;105811;1254;61262;-46
2024/02/04 05:00:06;;;;;;;0.70;0.60;;;;;;;18.45;49.11;97185.44;105505;1254;74391;-46
2024/02/04 05:02:33;;;;;;;1.30;0.60;;;;;;;18.45;49.10;97185.60;105860;1259;66271;-46
2024/02/04 05:05:00;;;;;;;0.70;0.50;;;;;;;18.45;49.13;97186.69;105559;1259;73450;-46
2024/02/04 05:07:27;;;;;;;0.40;0.40;;;;;;;18.46;49.06;97185.70;106104;1255;61230;-46
2024/02/04 05:09:53;;;;;;;0.40;0.40;;;;;;;18.45;49.21;97193.04;105500;1260;61276;-46
2024/02/04 05:12:20;;;;;;;0.40;0.40;;;;;;;18.45;49.18;97196.30;105420;1259;74351;-46
2024/02/04 05:14:47;;;;;;;0.40;0.40;;;;;;;18.45;49.19;97202.10;105646;1261;66101;-46
2024/02/04 05:17:13;;;;;;;0.50;0.50;;;;;;;18.45;49.17;97203.02;105437;1260;72566;-46
2024/02/04 05:19:43;;;;;;;0.40;0.40;;;;;;;18.45;49.18;97197.59;105546;1259;61356;-46
2024/02/04 05:22:10;;;;;;;0.40;0.40;;;;;;;18.45;49.16;97190.39;105648;1260;61339;-46
2024/02/04 05:24:36;;;;;;;0.30;0.30;;;;;;;18.45;49.15;97189.79;105587;1255;74552;-48
2024/02/04 05:27:04;;;;;;;0.50;0.50;;;;;;;18.45;49.19;97195.27;105418;1259;66570;-46
2024/02/04 05:29:31;;;;;;;0.50;0.50;;;;;;;18.45;49.20;97200.30;105665;1254;73680;-46
2024/02/04 05:31:58;;;;;;;0.40;0.40;;;;;;;18.45;49.19;97200.38;105650;1259;61340;-46
2024/02/04 05:34:25;;;;;;;0.60;0.50;;;;;;;18.44;49.18;97206.73;105602;1258;61368;-46
2024/02/04 05:36:52;;;;;;;0.80;0.50;;;;;;;18.44;49.18;97208.67;105655;1255;75117;-46
2024/02/04 05:39:19;;;;;;;0.80;0.50;;;;;;;18.44;49.12;97218.98;105639;1259;66327;-46
2024/02/04 05:41:46;;;;;;;0.30;0.30;;;;;;;18.44;49.12;97225.86;105519;1254;72383;-47
2024/02/04 05:44:13;;;;;;;0.40;0.40;;;;;;;18.44;49.15;97227.55;105601;1259;61246;-46
2024/02/04 05:46:40;;;;;;;0.60;0.50;;;;;;;18.44;49.14;97230.20;105578;1254;61380;-46
2024/02/04 05:49:07;;;;;;;0.50;0.50;;;;;;;18.43;49.24;97234.60;105638;1258;74627;-46
2024/02/04 05:51:40;;;;;;;0.60;0.50;;;;;;;18.43;49.13;97227.94;105624;1260;65736;-48
2024/02/04 05:54:07;;;;;;;0.70;0.50;;;;;;;18.44;49.11;97226.09;105530;1254;72368;-48
2024/02/04 05:56:34;;;;;;;0.50;0.50;;;;;;;18.43;49.22;97221.11;105594;1260;61384;-47
2024/02/04 05:59:01;;;;;;;0.50;0.40;;;;;;;18.44;49.17;97221.52;105479;1254;61183;-48
2024/02/04 06:01:27;;;;;;;0.50;0.40;;;;;;;18.44;49.10;97218.34;105403;1259;74336;-48
2024/02/04 06:03:54;;;;;;;0.50;0.40;;;;;;;18.44;49.11;97215.95;105545;1259;65968;-47
2024/02/04 06:06:21;;;;;;;0.40;0.40;;;;;;;18.44;49.20;97213.77;105368;1257;72665;-46
2024/02/04 06:08:47;;;;;;;0.30;0.30;;;;;;;18.43;49.19;97221.20;105576;1261;61145;-45
2024/02/04 06:11:14;;;;;;;0.40;0.40;;;;;;;18.43;49.21;97211.98;105470;1254;61349;-47
2024/02/04 06:13:42;;;;;;;0.40;0.40;;;;;;;18.43;49.18;97211.83;105528;1260;74586;-47
2024/02/04 06:16:11;;;;;;;0.70;0.50;;;;;;;18.43;49.18;97213.84;105545;1260;66240;-47
2024/02/04 06:18:39;;;;;;;0.60;0.50;;;;;;;18.44;49.19;97218.26;105317;1254;72589;-48
2024/02/04 06:21:06;;;;;;;0.60;0.40;;;;;;;18.43;49.16;97222.67;105472;1259;61164;-48
2024/02/04 06:23:32;;;;;;;0.40;0.40;;;;;;;18.44;49.21;97224.62;105557;1254;61346;-45
2024/02/04 06:26:00;;;;;;;0.30;0.30;;;;;;;18.44;49.20;97220.98;105628;1260;75082;-46
2024/02/04 06:28:26;;;;;;;0.70;0.50;;;;;;;18.44;49.18;97217.03;105663;1259;66017;-46
2024/02/04 06:30:54;;;;;;;0.50;0.50;;;;;;;18.44;49.18;97212.45;105592;1254;72579;-46
2024/02/04 06:33:20;;;;;;;0.90;0.60;;;;;;;18.44;49.26;97209.52;105643;1260;61164;-46
2024/02/04 06:35:48;;;;;;;0.50;0.40;;;;;;;18.44;49.17;97207.03;105670;1254;61435;-46
2024/02/04 06:38:14;;;;;;;0.50;0.50;;;;;;;18.45;49.17;97210.31;105522;1255;74341;-46
2024/02/04 06:40:41;;;;;;;0.50;0.40;;;;;;;18.44;49.15;97214.01;105476;1261;65909;-47
2024/02/04 06:43:08;;;;;;;1.00;0.40;;;;;;;18.44;49.16;97217.19;105673;1254;72455;-46
2024/02/04 06:45:34;;;;;;;0.60;0.40;;;;;;;18.44;49.15;97219.74;105510;1260;61237;-47
2024/02/04 06:48:01;;;;;;;0.40;0.40;;;;;;;18.45;49.17;97222.77;105538;1254;61232;-46
2024/02/04 06:50:28;;;;;;;0.40;0.40;;;;;;;18.45;49.14;97219.98;105659;1255;74357;-46
2024/02/04 06:52:55;;;;;;;0.60;0.40;;;;;;;18.45;49.15;97215.74;105535;1258;65503;-47
2024/02/04 06:55:22;;;;;;;0.70;0.50;;;;;;;18.46;49.18;97221.87;105392;1254;72504;-47
2024/02/04 06:57:48;;;;;;;0.60;0.50;;;;;;;18.47;49.18;97229.95;105464;1259;61253;-48
2024/02/04 07:00:15;;;;;;;0.60;0.40;;;;;;;18.47;49.17;97229.02;105486;1254;63038;-46
2024/02/04 07:02:42;;;;;;;0.40;0.40;;;;;;;18.47;49.16;97223.76;105700;1254;73371;-48
2024/02/04 07:05:10;;;;;;;0.40;0.40;;;;;;;18.47;49.17;97223.69;105465;1254;66382;-47
2024/02/04 07:07:37;;;;;;;0.50;0.40;;;;;;;18.47;49.13;97222.37;105797;1254;72836;-47
2024/02/04 07:10:05;;;;;;;0.40;0.40;;;;;;;18.47;49.15;97227.25;105456;1259;61375;-47
2024/02/04 07:12:32;;;;;;;0.50;0.50;;;;;;;18.48;49.17;97234.17;105930;1256;61343;-47
2024/02/04 07:14:59;;;;;;;0.40;0.40;;;;;;;18.49;49.15;97233.55;105494;1260;74366;-47
2024/02/04 07:17:26;;;;;;;0.50;0.50;;;;;;;18.49;49.08;97238.27;105418;1258;66052;-47
2024/02/04 07:19:53;;;;;;;1.10;0.40;;;;;;;18.50;49.12;97247.21;105435;1254;72627;-46
2024/02/04 07:22:20;;;;;;;0.50;0.30;;;;;;;18.50;49.04;97246.52;105407;1254;61181;-47
2024/02/04 07:24:47;;;;;;;0.70;0.50;;;;;;;18.50;49.16;97242.10;105501;1254;61599;-47
2024/02/04 07:27:13;;;;;;;0.40;0.40;;;;;;;18.51;49.12;97261.95;105445;1260;74585;-48
2024/02/04 07:29:40;;;;;;;0.70;0.50;;;;;;;18.51;49.12;97239.35;105451;1259;65585;-47
2024/02/04 07:32:07;;;;;;;0.40;0.30;;;;;;;18.51;49.10;97258.88;105442;1254;72380;-47
2024/02/04 07:34:34;;;;;;;0.70;0.40;;;;;;;18.51;49.10;97258.33;105497;1261;61250;-47
2024/02/04 07:37:00;;;;;;;0.40;0.40;;;;;;;18.52;49.13;97257.48;105413;1254;61238;-47
2024/02/04 07:39:27;;;;;;;0.50;0.40;;;;;;;18.52;49.06;97248.73;105549;1257;74561;-47
2024/02/04 07:41:55;;;;;;;0.60;0.40;;;;;;;18.52;49.06;97244.31;105432;1260;66058;-47
2024/02/04 07:44:24;;;;;;;0.30;0.30;;;;;;;18.54;49.05;97242.18;105567;1254;70616;-47
2024/02/04 07:46:50;;;;;;;0.40;0.40;;;;;;;18.54;49.09;97244.96;105442;1259;61351;-47
2024/02/04 07:49:17;;;;;;;0.80;0.50;;;;;;;18.54;49.01;97244.36;105444;1255;61277;-46
2024/02/04 07:51:44;;;;;;;0.80;0.50;;;;;;;18.56;49.03;97243.53;105557;1260;74615;-46
2024/02/04 07:54:11;;;;;;;0.60;0.50;;;;;;;18.56;48.96;97235.86;105463;1260;65445;-47
2024/02/04 07:56:37;;;;;;;0.60;0.50;;;;;;;18.57;49.03;97230.08;105529;1254;72467;-46
2024/02/04 07:59:04;;;;;;;0.70;0.50;;;;;;;18.59;49.03;97222.66;105697;1259;61371;-47
2024/02/04 08:01:31;;;;;;;0.50;0.50;;;;;;;18.59;49.02;97217.17;105314;1254;61326;-47
2024/02/04 08:03:59;;;;;;;0.50;0.40;;;;;;;18.60;48.98;97223.78;105665;1254;74642;-47
2024/02/04 08:06:26;;;;;;;0.50;0.50;;;;;;;18.61;48.89;97232.85;105613;1260;66098;-46
2024/02/04 08:08:53;;;;;;;0.60;0.50;;;;;;;18.62;48.84;97232.48;105513;1254;72700;-46
2024/02/04 08:11:21;;;;;;;0.70;0.50;;;;;;;18.62;48.88;97229.16;105480;1260;61235;-47
2024/02/04 08:13:48;;;;;;;0.40;0.40;;;;;;;18.62;48.89;97225.45;105586;1254;61365;-47
2024/02/04 08:16:14;;;;;;;1.30;0.60;;;;;;;18.63;48.91;97228.31;105547;1261;74546;-47
2024/02/04 08:18:42;;;;;;;0.70;0.60;;;;;;;18.63;48.95;97222.04;105570;1260;66135;-47
2024/02/04 08:21:08;;;;;;;0.50;0.40;;;;;;;18.64;48.97;97212.52;105546;1254;73131;-45
2024/02/04 08:23:35;;;;;;;0.60;0.40;;;;;;;18.64;48.90;97211.27;105506;1260;61157;-47
2024/02/04 08:26:02;;;;;;;0.70;0.40;;;;;;;18.64;48.85;97214.46;105522;1256;61214;-47
2024/02/04 08:28:29;;;;;;;0.50;0.40;;;;;;;18.63;48.87;97212.73;105484;1259;74427;-47
2024/02/04 08:30:56;;;;;;;0.50;0.50;;;;;;;18.63;48.93;97222.90;105387;1257;67829;-47
2024/02/04 08:33:22;;;;;;;0.40;0.40;;;;;;;18.64;48.88;97228.02;105599;1254;72574;-47
2024/02/04 08:35:49;;;;;;;0.80;0.50;;;;;;;18.64;48.81;97234.92;105588;1259;61696;-45
2024/02/04 08:38:16;;;;;;;0.40;0.40;;;;;;;18.63;48.93;97234.75;105612;1254;61332;-47
2024/02/04 08:40:42;;;;;;;0.70;0.40;;;;;;;18.64;48.88;97237.95;105585;1254;73821;-46
2024/02/04 08:43:09;;;;;;;0.60;0.40;;;;;;;18.64;48.90;97234.85;105521;1255;66436;-47
2024/02/04 08:45:36;;;;;;;0.70;0.50;;;;;;;18.64;48.90;97239.89;105559;1255;72696;-45
2024/02/04 08:48:02;;;;;;;0.50;0.40;;;;;;;18.64;48.98;97237.34;105567;1260;61266;-48
2024/02/04 08:50:30;;;;;;;0.70;0.50;;;;;;;18.64;48.85;97236.95;105657;1254;61256;-46
2024/02/04 08:52:56;;;;;;;0.40;0.40;;;;;;;18.64;48.84;97232.61;105543;1254;74605;-46
2024/02/04 08:55:23;;;;;;;0.30;0.30;;;;;;;18.64;48.89;97230.83;105643;1254;65775;-46
2024/02/04 08:57:50;;;;;;;0.60;0.50;;;;;;;18.65;48.91;97237.19;105631;1254;72570;-47
2024/02/04 09:00:18;;;;;;;0.60;0.50;;;;;;;18.65;48.85;97242.00;105517;1261;61241;-46
2024/02/04 09:02:46;;;;;;;0.40;0.30;;;;;;;18.65;48.81;97236.74;105761;1254;61174;-47
2024/02/04 09:05:13;;;;;;;1.30;0.40;;;;;;;18.65;48.94;97246.27;105638;1254;74344;-47
2024/02/04 09:07:40;;;;;;;0.40;0.40;;;;;;;18.66;48.89;97241.09;105816;1258;66312;-46
2024/02/04 09:10:07;;;;;;;0.30;0.30;;;;;;;18.66;48.88;97239.91;105619;1254;72569;-46
2024/02/04 09:12:34;;;;;;;0.60;0.40;;;;;;;18.67;48.82;97236.69;105867;1254;61221;-46
2024/02/04 09:15:01;;;;;;;0.60;0.40;;;;;;;18.67;48.83;97233.36;105428;1254;61211;-46
2024/02/04 09:17:28;;;;;;;0.50;0.40;;;;;;;18.68;48.87;97222.59;105482;1259;76239;-46
2024/02/04 09:19:55;;;;;;;0.40;0.40;;;;;;;18.68;48.82;97222.52;105593;1259;66824;-48
2024/02/04 09:22:22;;;;;;;0.40;0.40;;;;;;;18.68;48.84;97221.83;105453;1254;72796;-47
2024/02/04 09:24:48;;;;;;;0.40;0.40;;;;;;;18.68;48.82;97225.08;105670;1259;61478;-45
2024/02/04 09:27:15;;;;;;;0.40;0.30;;;;;;;18.68;48.81;97227.33;105561;1254;61685;-46
2024/02/04 09:29:42;;;;;;;1.20;0.50;;;;;;;18.68;48.77;97226.40;105626;1259;74519;-45
2024/02/04 09:32:08;;;;;;;0.30;0.30;;;;;;;18.68;48.90;97223.52;105430;1259;65873;-45
2024/02/04 09:34:35;;;;;;;0.40;0.40;;;;;;;18.68;48.83;97225.23;105564;1254;72382;-46
2024/02/04 09:37:03;;;;;;;0.40;0.40;;;;;;;18.69;48.86;97226.34;105505;1258;61209;-48
2024/02/04 09:39:30;;;;;;;0.50;0.50;;;;;;;18.68;48.80;97232.05;105473;1254;61301;-48
2024/02/04 09:41:57;;;;;;;0.40;0.30;;;;;;;18.68;48.78;97235.92;105472;1254;74463;-47
2024/02/04 09:44:24;;;;;;;0.40;0.40;;;;;;;18.68;48.90;97231.96;105664;1261;66399;-46
2024/02/04 09:46:52;;;;;;;0.90;0.40;;;;;;;18.69;48.80;97241.52;105469;1254;72463;-47
2024/02/04 09:49:19;;;;;;;0.70;0.50;;;;;;;18.69;48.78;97247.71;105521;1270;61224;-48
2024/02/04 09:51:46;;;;;;;0.30;0.30;;;;;;;18.68;48.90;97233.45;105346;1254;61298;-48
2024/02/04 09:54:13;;;;;;;0.40;0.40;;;;;;;18.69;48.84;97231.69;105456;1255;74547;-48
2024/02/04 09:56:39;;;;;;;0.30;0.30;;;;;;;18.69;48.90;97234.63;105405;1256;66347;-48
2024/02/04 09:59:06;;;;;;;0.50;0.40;;;;;;;18.69;48.80;97227.50;105430;1254;72288;-46
2024/02/04 10:01:32;;;;;;;0.40;0.30;;;;;;;18.69;48.82;97231.67;105169;1260;61261;-47
2024/02/04 10:03:59;;;;;;;0.50;0.30;;;;;;;18.69;48.72;97233.39;105470;1254;61303;-47
2024/02/04 10:06:26;;;;;;;0.80;0.40;;;;;;;18.70;48.89;97224.41;105491;1254;74386;-46
2024/02/04 10:08:53;;;;;;;0.70;0.50;;;;;;;18.69;48.79;97215.27;105591;1260;66093;-46
2024/02/04 10:11:20;;;;;;;0.40;0.40;;;;;;;18.70;48.72;97208.91;105400;1254;72986;-46
2024/02/04 10:13:48;;;;;;;0.50;0.40;;;;;;;18.70;48.77;97201.02;105579;1259;61241;-46
2024/02/04 10:16:16;;;;;;;0.50;0.50;;;;;;;18.70;48.81;97198.00;105644;1254;61227;-45
2024/02/04 10:18:44;;;;;;;0.50;0.40;;;;;;;18.70;48.76;97202.71;105568;1260;74397;-47
2024/02/04 10:21:21;;;;;;;0.40;0.40;;;;;;;18.70;48.88;97197.21;105545;1256;64804;-47
2024/02/04 10:23:47;;;;;;;0.60;0.40;;;;;;;18.70;48.79;97195.58;105605;1259;72635;-47
2024/02/04 10:26:14;;;;;;;0.50;0.50;;;;;;;18.70;48.80;97190.31;105646;1259;61259;-47
2024/02/04 10:28:41;;;;;;;0.50;0.50;;;;;;;18.70;48.80;97191.16;105603;1258;61365;-47
2024/02/04 10:31:09;;;;;;;0.40;0.40;;;;;;;18.71;48.84;97191.80;105430;1254;74568;-46
2024/02/04 10:33:37;;;;;;;0.40;0.40;;;;;;;18.72;48.74;97191.59;105487;1256;64873;-46
2024/02/04 10:36:04;;;;;;;0.70;0.60;;;;;;;18.72;48.72;97184.02;105557;1254;73031;-46
2024/02/04 10:38:32;;;;;;;0.60;0.40;;;;;;;18.72;48.74;97179.67;105501;1259;61260;-47
2024/02/04 10:41:01;;;;;;;1.10;0.40;;;;;;;18.73;48.76;97185.19;105536;1254;61254;-47
2024/02/04 10:43:33;;;;;;;1.70;0.50;;;;;;;18.72;48.77;97185.16;105472;1259;75512;-47
2024/02/04 10:46:10;;;;;;;0.40;0.30;;;;;;;18.73;48.76;97186.02;105389;1259;178119;-47
2024/02/04 10:48:41;;;;;;;1.30;0.40;;;;;;;18.73;48.74;97188.73;105613;1254;73090;-45
2024/02/04 10:51:12;;;;;;;0.40;0.40;;;;;;;18.73;48.73;97189.05;105453;1259;61273;-48
2024/02/04 10:53:46;;;;;;;0.40;0.40;;;;;;;18.74;48.79;97181.16;105493;1255;61190;-46
2024/02/04 10:56:20;;;;;;;0.30;0.30;;;;;;;18.74;48.75;97178.61;105540;1258;75482;-47
2024/02/04 10:58:47;;;;;;;0.50;0.40;;;;;;;18.75;48.82;97181.65;105554;1258;66895;-47
2024/02/04 11:01:14;;;;;;;0.40;0.40;;;;;;;18.75;48.70;97177.70;105556;1254;73718;-45
2024/02/04 11:03:40;;;;;;;0.40;0.40;;;;;;;18.75;48.78;97175.52;105458;1259;61406;-47
2024/02/04 11:06:08;;;;;;;1.30;0.50;;;;;;;18.76;48.70;97173.91;105458;1255;61375;-47
2024/02/04 11:08:35;;;;;;;0.30;0.30;;;;;;;18.76;48.75;97168.27;105678;1258;75628;-47
2024/02/04 11:11:01;;;;;;;0.50;0.40;;;;;;;18.76;48.74;97174.00;105615;1259;66642;-47
2024/02/04 11:13:28;;;;;;;0.40;0.40;;;;;;;18.76;48.67;97175.16;105454;1254;73494;-45
2024/02/04 11:15:57;;;;;;;0.80;0.50;;;;;;;18.76;48.64;97176.09;105401;1259;61288;-47
2024/02/04 11:18:50;;;;;;;0.40;0.30;;;;;;;18.76;48.62;97169.67;105548;1255;61228;-46
2024/02/04 11:21:48;;;;;;;0.50;0.50;;;;;;;18.76;48.68;97175.16;105446;1259;74649;-46
2024/02/04 11:24:53;;;;;;;0.40;0.40;;;;;;;18.77;48.65;97175.02;105569;1255;66569;-47
2024/02/04 11:27:19;;;;;;;0.50;0.50;;;;;;;18.77;48.64;97167.11;105570;1254;72526;-46